RYR8XC EBCI-LEPA
Flight info
| Callsign | RYR8XC |
|---|---|
| Flight time | N/A |
| Altitude | 31000 |
| Route | CIV N872 LESDO DCT KOVIN DCT DUCRA UM728 RESMI UN857 DISAK DCT DIRMO DCT VALKU DCT ATSUP DCT MINSO DCT DEGOL DCT PPG DCT ALBER DCT GIR DCT NENDA DCT KUREG P84 LORES |
| Aircraft | A320/M-SDE3FGHIRWY/LB1 |
Departure
| Time | 2026-05-04 16:56 |
|---|---|
| Airport | Brussels South Charleroi Airport (EBCI) |
Arrival
| Time | N/A |
|---|---|
| Airport | Palma de Mallorca Airport (LEPA) |
| Time | Latitude | Longitude | Altitude | Speed | Heading |
|---|---|---|---|---|---|
| 2026-05-04 16:27 | 50.46856 | 4.47041 | 585 ft | 0 kts | 335° |
| 2026-05-04 16:30 | 50.46872 | 4.47096 | 585 ft | 0 kts | 335° |
| 2026-05-04 16:35 | 50.46872 | 4.47097 | 585 ft | 0 kts | 335° |
| 2026-05-04 16:49 | 50.46844 | 4.47116 | 585 ft | 4 kts | 335° |
| 2026-05-04 16:49 | 50.46813 | 4.47107 | 585 ft | 4 kts | 65° |
| 2026-05-04 16:50 | 50.46806 | 4.47082 | 585 ft | 0 kts | 65° |
| 2026-05-04 16:52 | 50.46813 | 4.47106 | 586 ft | 7 kts | 65° |
| 2026-05-04 16:52 | 50.46834 | 4.47181 | 585 ft | 7 kts | 66° |
| 2026-05-04 16:53 | 50.46837 | 4.47319 | 587 ft | 10 kts | 137° |
| 2026-05-04 16:53 | 50.46708 | 4.47421 | 592 ft | 13 kts | 156° |
| 2026-05-04 16:54 | 50.46637 | 4.47447 | 596 ft | 9 kts | 197° |
| 2026-05-04 16:55 | 50.46311 | 4.46404 | 591 ft | 113 kts | 245° |
| 2026-05-04 16:55 | 50.45438 | 4.43409 | 1188 ft | 163 kts | 244° |
| 2026-05-04 16:56 | 50.44476 | 4.40039 | 2302 ft | 185 kts | 246° |
| 2026-05-04 16:56 | 50.42589 | 4.33394 | 3955 ft | 260 kts | 246° |
| 2026-05-04 16:57 | 50.41829 | 4.30750 | 4865 ft | 270 kts | 246° |
| 2026-05-04 16:57 | 50.40247 | 4.25300 | 6874 ft | 279 kts | 245° |
| 2026-05-04 16:58 | 50.37700 | 4.16906 | 9408 ft | 289 kts | 245° |
| 2026-05-04 16:58 | 50.36814 | 4.14056 | 10201 ft | 294 kts | 244° |
| 2026-05-04 16:59 | 50.34891 | 4.07876 | 10757 ft | 337 kts | 244° |